Time;durP1;ratioP1;P1;durP2;ratioP2;P2;SDS_P1;SDS_P2;PMS_P1;PMS_P2;Temp;Humidity;BMP_temperature;BMP_pressure;BME280_temperature;BME280_humidity;BME280_pressure;Samples;Min_cycle;Max_cycle;Signal;HPM_P1;HPM_P2
2021/11/18 00:01:03;;;;;;;22.23;6.18;;;7.80;99.90;;;;;;5054921;28;20035;-85
2021/11/18 00:03:29;;;;;;;18.45;5.82;;;7.80;99.90;;;;;;5038492;28;20059;-85
2021/11/18 00:05:55;;;;;;;15.15;5.47;;;7.80;99.90;;;;;;5058027;28;20021;-85
2021/11/18 00:08:21;;;;;;;22.10;6.97;;;7.80;99.90;;;;;;5007709;28;20029;-84
2021/11/18 00:10:55;;;;;;;23.48;6.38;;;7.80;99.90;;;;;;5040169;28;20495;-84
2021/11/18 00:13:26;;;;;;;15.18;6.32;;;7.70;99.90;;;;;;5039330;28;20377;-84
2021/11/18 00:15:53;;;;;;;;;;;7.80;99.90;;;;;;5057346;28;20031;-86
2021/11/18 00:18:21;;;;;;;17.90;6.13;;;7.70;99.90;;;;;;5039569;28;19920;-85
2021/11/18 00:20:57;;;;;;;19.23;6.40;;;7.70;99.90;;;;;;5056600;28;20048;-84
2021/11/18 00:23:24;;;;;;;19.65;6.15;;;7.70;99.90;;;;;;5057044;28;20025;-85
2021/11/18 00:25:51;;;;;;;22.92;6.97;;;7.70;99.90;;;;;;5029503;28;20082;-84
2021/11/18 00:28:17;;;;;;;19.58;5.63;;;7.70;99.90;;;;;;5026123;28;20033;-84
2021/11/18 00:30:44;;;;;;;17.30;6.57;;;7.70;99.90;;;;;;5055616;28;20389;-84
2021/11/18 00:33:11;;;;;;;23.05;6.32;;;7.70;99.90;;;;;;5056971;28;20450;-84
2021/11/18 00:35:37;;;;;;;18.55;6.32;;;7.70;99.90;;;;;;5056983;28;20041;-85
2021/11/18 00:38:04;;;;;;;15.05;6.78;;;7.70;99.90;;;;;;5056977;28;20071;-87
2021/11/18 00:40:34;;;;;;;19.40;6.38;;;7.70;99.90;;;;;;5057490;28;20075;-85
2021/11/18 00:43:01;;;;;;;19.48;6.32;;;7.70;99.90;;;;;;5038949;28;20067;-84
2021/11/18 00:45:27;;;;;;;16.70;6.28;;;7.70;99.90;;;;;;5056463;28;20489;-85
2021/11/18 00:47:54;;;;;;;22.98;7.00;;;7.70;99.90;;;;;;5040088;28;20029;-85
2021/11/18 00:50:24;;;;;;;22.85;6.40;;;7.60;99.90;;;;;;5039250;28;20021;-85
2021/11/18 00:52:51;;;;;;;18.73;6.80;;;7.60;99.90;;;;;;5058459;28;20029;-84
2021/11/18 00:55:17;;;;;;;16.60;6.13;;;7.60;99.90;;;;;;5042011;28;20098;-85
2021/11/18 00:57:42;;;;;;;15.45;6.07;;;7.60;99.90;;;;;;5041745;28;20477;-84
2021/11/18 01:00:16;;;;;;;21.58;7.30;;;7.60;99.90;;;;;;5040620;28;20033;-87
2021/11/18 01:02:43;;;;;;;19.27;6.60;;;7.60;99.90;;;;;;5038026;28;20119;-85
2021/11/18 01:05:09;;;;;;;16.23;6.60;;;7.50;99.90;;;;;;5022349;28;20029;-85
2021/11/18 01:07:35;;;;;;;17.05;6.32;;;7.50;99.90;;;;;;5038902;28;20120;-85
2021/11/18 01:10:03;;;;;;;15.20;6.05;;;7.50;99.90;;;;;;5021847;28;20473;-85
2021/11/18 01:12:30;;;;;;;17.63;6.32;;;7.50;99.90;;;;;;5038523;28;20488;-85
2021/11/18 01:14:55;;;;;;;19.40;6.30;;;7.50;99.90;;;;;;5037751;28;20021;-85
2021/11/18 01:17:21;;;;;;;20.58;6.28;;;7.40;99.90;;;;;;5056060;28;20041;-86
2021/11/18 01:19:46;;;;;;;18.67;5.78;;;7.50;99.90;;;;;;5021660;28;20033;-85
2021/11/18 01:22:13;;;;;;;19.02;5.90;;;7.40;99.90;;;;;;5021692;28;20045;-86
2021/11/18 01:24:42;;;;;;;24.35;7.32;;;7.40;99.90;;;;;;5021940;28;20029;-85
2021/11/18 01:27:08;;;;;;;19.15;6.22;;;7.40;99.90;;;;;;5055751;28;20029;-85
2021/11/18 01:29:34;;;;;;;21.95;7.63;;;7.40;99.90;;;;;;5037959;28;20036;-85
2021/11/18 01:32:00;;;;;;;18.88;6.88;;;7.40;99.90;;;;;;5021512;28;20021;-90
2021/11/18 01:34:27;;;;;;;32.35;7.78;;;7.40;99.90;;;;;;5021327;28;20025;-85
2021/11/18 01:36:53;;;;;;;21.02;7.53;;;7.40;99.90;;;;;;5020981;28;20082;-85
2021/11/18 01:39:19;;;;;;;21.70;6.90;;;7.40;99.90;;;;;;5037840;28;20040;-85
2021/11/18 01:41:46;;;;;;;17.83;7.53;;;7.40;99.90;;;;;;5055400;28;20450;-85
2021/11/18 01:44:26;;;;;;;22.20;8.15;;;7.50;99.90;;;;;;5037509;28;20027;-85
2021/11/18 01:46:52;;;;;;;19.42;8.27;;;7.40;99.90;;;;;;5055434;28;20029;-85
2021/11/18 01:49:18;;;;;;;23.15;8.68;;;7.40;99.90;;;;;;5037839;28;20033;-85
2021/11/18 01:51:46;;;;;;;21.80;8.30;;;7.40;99.90;;;;;;5021649;28;20033;-85
2021/11/18 01:54:15;;;;;;;26.30;9.13;;;7.40;99.90;;;;;;5021386;28;20458;-85
2021/11/18 01:56:42;;;;;;;20.92;7.82;;;7.40;99.90;;;;;;5054991;28;20025;-85
2021/11/18 01:59:17;;;;;;;24.70;7.45;;;7.50;99.90;;;;;;5037357;28;20512;-85
2021/11/18 02:01:47;;;;;;;13.95;7.43;;;7.50;99.90;;;;;;5054958;28;20025;-85
2021/11/18 02:04:16;;;;;;;15.38;7.15;;;7.40;99.90;;;;;;5037452;28;20480;-85
2021/11/18 02:06:47;;;;;;;26.08;8.57;;;7.40;99.90;;;;;;5038868;28;20029;-85
2021/11/18 02:09:16;;;;;;;18.23;7.23;;;7.40;99.90;;;;;;5055095;28;20108;-86
2021/11/18 02:11:49;;;;;;;22.02;7.88;;;7.40;99.90;;;;;;5054512;28;20321;-85
2021/11/18 02:14:18;;;;;;;23.00;8.57;;;7.40;99.90;;;;;;5037073;28;20021;-85
2021/11/18 02:16:45;;;;;;;26.35;8.80;;;7.40;99.90;;;;;;5036683;28;20479;-85
2021/11/18 02:19:12;;;;;;;24.67;8.32;;;7.40;99.90;;;;;;5020536;28;20036;-86
2021/11/18 02:21:40;;;;;;;22.17;8.43;;;7.40;99.90;;;;;;5037589;28;20040;-85
2021/11/18 02:24:22;;;;;;;25.15;9.05;;;7.40;99.90;;;;;;5036306;28;20039;-86
2021/11/18 02:26:48;;;;;;;23.27;9.77;;;7.40;99.90;;;;;;5053005;28;20029;-85
2021/11/18 02:29:16;;;;;;;22.98;8.75;;;7.40;99.90;;;;;;5020663;28;20032;-85
2021/11/18 02:31:47;;;;;;;26.17;9.85;;;7.40;99.90;;;;;;5036456;28;20132;-85
2021/11/18 02:34:17;;;;;;;17.73;8.43;;;7.40;99.90;;;;;;5052397;28;20024;-85
2021/11/18 02:36:43;;;;;;;26.43;8.47;;;7.40;99.90;;;;;;5035933;28;20049;-85
2021/11/18 02:39:09;;;;;;;27.50;10.05;;;7.30;99.90;;;;;;5053047;28;20033;-85
2021/11/18 02:41:36;;;;;;;25.48;8.40;;;7.30;99.90;;;;;;5037074;28;20033;-85
2021/11/18 02:44:04;;;;;;;21.77;8.90;;;7.30;99.90;;;;;;5036101;28;20075;-86
2021/11/18 02:46:29;;;;;;;20.05;8.43;;;7.30;99.90;;;;;;5054042;28;20488;-85
2021/11/18 02:48:55;;;;;;;20.35;8.05;;;7.40;99.90;;;;;;5037652;28;20036;-85
2021/11/18 02:51:22;;;;;;;18.13;7.75;;;7.30;99.90;;;;;;5036443;28;20060;-85
2021/11/18 02:53:48;;;;;;;24.45;8.82;;;7.30;99.90;;;;;;5054634;28;20357;-85
2021/11/18 02:56:15;;;;;;;18.10;8.13;;;7.30;99.90;;;;;;5036594;28;20036;-85
2021/11/18 02:58:41;;;;;;;22.00;8.93;;;7.40;99.90;;;;;;5036305;28;20021;-85
2021/11/18 03:01:13;;;;;;;20.65;8.65;;;7.40;99.90;;;;;;5052995;28;20389;-87
2021/11/18 03:03:39;;;;;;;25.33;8.07;;;7.40;99.90;;;;;;5054160;28;20028;-85
2021/11/18 03:06:06;;;;;;;24.50;8.85;;;7.30;99.90;;;;;;5054285;28;20032;-85
2021/11/18 03:08:32;;;;;;;25.80;9.30;;;7.40;99.90;;;;;;5020225;28;20068;-85
2021/11/18 03:10:58;;;;;;;25.92;7.82;;;7.40;99.90;;;;;;5036023;28;20043;-85
2021/11/18 03:13:25;;;;;;;21.77;8.93;;;7.40;99.90;;;;;;5053618;28;20103;-84
2021/11/18 03:15:53;;;;;;;27.75;8.63;;;7.40;99.90;;;;;;5036185;28;20029;-85
2021/11/18 03:18:23;;;;;;;26.10;9.10;;;7.40;99.90;;;;;;5035965;28;20080;-85
2021/11/18 03:20:50;;;;;;;27.67;9.38;;;7.40;99.90;;;;;;5036732;28;20047;-84
2021/11/18 03:23:17;;;;;;;21.25;10.15;;;7.50;99.90;;;;;;5035814;28;20111;-85
2021/11/18 03:25:43;;;;;;;25.75;10.10;;;7.50;99.90;;;;;;5053419;28;20029;-85
2021/11/18 03:28:09;;;;;;;22.27;9.45;;;7.50;99.90;;;;;;5035543;28;20424;-85
2021/11/18 03:30:40;;;;;;;26.27;9.95;;;7.50;99.90;;;;;;5019658;28;20025;-85
2021/11/18 03:33:19;;;;;;;24.63;8.60;;;7.50;99.90;;;;;;5035905;28;20029;-85
2021/11/18 03:35:45;;;;;;;26.20;9.15;;;7.50;99.90;;;;;;5035993;28;20113;-85
2021/11/18 03:38:14;;;;;;;18.83;8.77;;;7.50;99.90;;;;;;5019709;28;20108;-84
2021/11/18 03:40:42;;;;;;;23.17;8.82;;;7.50;99.90;;;;;;5053786;28;20035;-85
2021/11/18 03:43:09;;;;;;;21.10;9.80;;;7.60;99.90;;;;;;5053317;28;20048;-85
2021/11/18 03:45:37;;;;;;;26.88;9.10;;;7.60;99.90;;;;;;5020005;28;20036;-85
2021/11/18 03:48:03;;;;;;;25.75;10.00;;;7.60;99.90;;;;;;5053869;28;20468;-85
2021/11/18 03:50:29;;;;;;;23.48;8.68;;;7.60;99.90;;;;;;5053728;28;20029;-85
2021/11/18 03:52:55;;;;;;;25.58;10.07;;;7.60;99.90;;;;;;5036461;28;20147;-85
2021/11/18 03:55:21;;;;;;;21.42;8.98;;;7.70;99.90;;;;;;5035917;28;20367;-85
2021/11/18 03:57:47;;;;;;;30.80;9.80;;;7.70;99.90;;;;;;5034616;28;20029;-84
2021/11/18 04:00:20;;;;;;;26.77;9.73;;;7.70;99.90;;;;;;5035333;28;20501;-84
2021/11/18 04:02:46;;;;;;;23.75;8.65;;;7.70;99.90;;;;;;5053674;28;20022;-85
2021/11/18 04:05:13;;;;;;;24.25;9.13;;;7.70;99.90;;;;;;5019518;28;20407;-85
2021/11/18 04:07:39;;;;;;;25.20;8.75;;;7.70;99.90;;;;;;5035479;28;20025;-84
2021/11/18 04:10:11;;;;;;;26.60;8.30;;;7.70;99.90;;;;;;5035493;28;20025;-85
2021/11/18 04:12:39;;;;;;;22.98;9.15;;;7.70;99.90;;;;;;5052835;28;20120;-84
2021/11/18 04:15:07;;;;;;;20.20;10.38;;;7.70;99.90;;;;;;5019568;28;20075;-85
2021/11/18 04:17:33;;;;;;;28.98;9.30;;;7.70;99.90;;;;;;5035336;28;20523;-85
2021/11/18 04:19:59;;;;;;;24.42;9.20;;;7.70;99.90;;;;;;5035928;28;20029;-85
2021/11/18 04:22:24;;;;;;;24.27;9.77;;;7.80;99.90;;;;;;5035765;28;20484;-85
2021/11/18 04:24:50;;;;;;;28.83;8.95;;;7.70;99.90;;;;;;5019289;28;20025;-85
2021/11/18 04:27:16;;;;;;;37.75;9.20;;;7.80;99.90;;;;;;5019086;28;20026;-85
2021/11/18 04:29:42;;;;;;;23.02;9.48;;;7.80;99.90;;;;;;5053511;28;20029;-85
2021/11/18 04:32:13;;;;;;;26.48;9.38;;;7.80;99.90;;;;;;5019470;28;20029;-85
2021/11/18 04:34:39;;;;;;;31.42;9.00;;;7.80;99.90;;;;;;5035536;28;20021;-85
2021/11/18 04:37:05;;;;;;;24.05;8.93;;;7.80;99.90;;;;;;5053480;28;20048;-85
2021/11/18 04:39:31;;;;;;;31.35;9.77;;;7.80;99.90;;;;;;5019322;28;20451;-86
2021/11/18 04:41:58;;;;;;;26.05;9.18;;;7.80;99.90;;;;;;5034963;28;20127;-84
2021/11/18 04:44:24;;;;;;;22.10;8.73;;;7.80;99.90;;;;;;5035523;28;20029;-85
2021/11/18 04:46:50;;;;;;;27.52;9.80;;;7.80;99.90;;;;;;5035334;28;20036;-85
2021/11/18 04:49:16;;;;;;;24.13;10.23;;;7.80;99.90;;;;;;5036996;28;20040;-85
2021/11/18 04:51:42;;;;;;;24.83;10.07;;;7.80;99.90;;;;;;5022541;28;20481;-85
2021/11/18 04:54:09;;;;;;;27.30;10.73;;;7.80;99.90;;;;;;5022473;28;20025;-85
2021/11/18 04:56:36;;;;;;;29.70;9.88;;;7.80;99.90;;;;;;5022636;28;20021;-86
2021/11/18 04:59:03;;;;;;;30.38;10.70;;;7.80;99.90;;;;;;5039253;28;20115;-84
2021/11/18 05:01:28;;;;;;;28.95;10.77;;;7.80;99.90;;;;;;5038229;28;20058;-85
2021/11/18 05:03:55;;;;;;;27.05;11.18;;;7.80;99.90;;;;;;5039022;28;20033;-85
2021/11/18 05:06:21;;;;;;;28.95;10.55;;;7.90;99.90;;;;;;5038690;28;20110;-84
2021/11/18 05:08:47;;;;;;;30.27;10.90;;;7.90;99.90;;;;;;5056546;28;20029;-85
2021/11/18 05:11:13;;;;;;;29.75;9.27;;;7.90;99.90;;;;;;5021868;28;20021;-85
2021/11/18 05:13:40;;;;;;;35.50;10.73;;;7.80;99.90;;;;;;5037774;28;20025;-85
2021/11/18 05:16:09;;;;;;;35.17;12.45;;;7.90;99.90;;;;;;5038422;28;20017;-84
2021/11/18 05:18:35;;;;;;;31.00;11.18;;;7.80;99.90;;;;;;5056179;28;20033;-85
2021/11/18 05:21:02;;;;;;;23.77;11.32;;;7.90;99.90;;;;;;5055648;28;20036;-85
2021/11/18 05:23:28;;;;;;;27.30;11.27;;;7.80;99.90;;;;;;5055891;28;20118;-85
2021/11/18 05:25:55;;;;;;;33.20;11.95;;;7.90;99.90;;;;;;5055916;28;20029;-85
2021/11/18 05:28:22;;;;;;;33.17;11.07;;;7.90;99.90;;;;;;5038046;28;20060;-85
2021/11/18 05:30:48;;;;;;;33.13;13.80;;;7.90;99.90;;;;;;5038118;28;20041;-85
2021/11/18 05:33:16;;;;;;;34.08;10.90;;;7.90;99.90;;;;;;5037409;28;20438;-85
2021/11/18 05:35:43;;;;;;;32.75;12.05;;;7.90;99.90;;;;;;5038104;28;20080;-85
2021/11/18 05:38:09;;;;;;;32.22;11.57;;;7.90;99.90;;;;;;5038239;28;20451;-85
2021/11/18 05:40:39;;;;;;;33.67;10.98;;;7.90;99.90;;;;;;5038177;28;20377;-84
2021/11/18 05:43:06;;;;;;;33.88;10.88;;;7.90;99.90;;;;;;5037793;28;20463;-85
2021/11/18 05:45:34;;;;;;;38.35;11.30;;;7.90;99.90;;;;;;5057023;28;20025;-84
2021/11/18 05:48:01;;;;;;;34.35;11.65;;;7.90;99.90;;;;;;5054216;28;20492;-84
2021/11/18 05:50:27;;;;;;;33.10;11.73;;;7.90;99.90;;;;;;5037678;28;20136;-88
2021/11/18 05:52:53;;;;;;;34.20;12.13;;;8.00;99.90;;;;;;5038152;28;20021;-84
2021/11/18 05:55:22;;;;;;;36.75;12.00;;;7.90;99.90;;;;;;5037519;28;20484;-86
2021/11/18 05:57:48;;;;;;;32.53;10.82;;;7.90;99.90;;;;;;5037240;28;20067;-84
2021/11/18 06:00:19;;;;;;;26.40;10.23;;;7.90;99.90;;;;;;5036957;28;20060;-84
2021/11/18 06:02:45;;;;;;;39.97;11.07;;;8.00;99.90;;;;;;5037374;28;20016;-84
2021/11/18 06:05:12;;;;;;;32.95;10.38;;;8.00;99.90;;;;;;5037655;28;20473;-84
2021/11/18 06:07:38;;;;;;;39.15;11.60;;;8.00;99.90;;;;;;5036422;28;20067;-84
2021/11/18 06:10:05;;;;;;;36.00;11.07;;;8.00;99.90;;;;;;5036959;28;20118;-84
2021/11/18 06:12:30;;;;;;;34.83;11.15;;;8.00;99.90;;;;;;5037373;28;20029;-85
2021/11/18 06:14:56;;;;;;;31.85;10.50;;;8.00;99.90;;;;;;5020950;28;20461;-85
2021/11/18 06:17:22;;;;;;;33.25;10.80;;;8.00;99.90;;;;;;5037139;28;20440;-84
2021/11/18 06:19:48;;;;;;;34.47;11.32;;;8.10;99.90;;;;;;5020651;28;20179;-84
2021/11/18 06:22:14;;;;;;;37.20;12.07;;;8.10;99.90;;;;;;5025793;28;20039;-82
2021/11/18 06:24:40;;;;;;;36.92;11.77;;;8.10;99.90;;;;;;5025186;28;20026;-85
2021/11/18 06:27:06;;;;;;;33.10;12.00;;;8.10;99.90;;;;;;5021259;28;20029;-85
2021/11/18 06:29:33;;;;;;;36.78;11.43;;;8.10;99.90;;;;;;5037538;28;20124;-86
2021/11/18 06:32:02;;;;;;;31.45;10.80;;;8.10;99.90;;;;;;5020994;28;20029;-85
2021/11/18 06:34:28;;;;;;;34.47;11.77;;;8.10;99.90;;;;;;5056440;28;20029;-85
2021/11/18 06:36:54;;;;;;;33.90;11.10;;;8.10;99.90;;;;;;5025167;28;20144;-85
2021/11/18 06:39:21;;;;;;;38.58;11.63;;;8.10;99.90;;;;;;5017508;28;20029;-85
2021/11/18 06:41:48;;;;;;;37.75;12.02;;;8.10;99.90;;;;;;5017038;28;20095;-85
2021/11/18 06:44:15;;;;;;;40.28;12.20;;;8.20;99.90;;;;;;5017322;28;20025;-85
2021/11/18 06:46:40;;;;;;;40.38;11.90;;;8.20;99.90;;;;;;5017052;28;20109;-85
2021/11/18 06:49:08;;;;;;;31.42;11.38;;;8.20;99.90;;;;;;5005894;28;20064;-84
2021/11/18 06:51:38;;;;;;;42.40;12.43;;;8.20;99.90;;;;;;5024317;28;20025;-86
2021/11/18 06:54:04;;;;;;;35.72;11.95;;;8.20;99.90;;;;;;5025502;28;20512;-84
2021/11/18 06:56:30;;;;;;;32.53;9.68;;;8.20;99.90;;;;;;5027933;28;20032;-84
2021/11/18 06:58:56;;;;;;;35.83;11.27;;;8.20;99.90;;;;;;5013076;28;20033;-84
2021/11/18 07:01:22;;;;;;;32.25;10.95;;;8.20;99.90;;;;;;5041282;28;20009;-84
2021/11/18 07:03:49;;;;;;;36.47;12.77;;;8.20;99.90;;;;;;5040804;28;20009;-89
2021/11/18 07:06:19;;;;;;;27.10;10.30;;;8.20;99.90;;;;;;5057762;28;20018;-84
2021/11/18 07:08:45;;;;;;;34.67;12.20;;;8.30;99.90;;;;;;5040265;28;20009;-86
2021/11/18 07:11:11;;;;;;;42.40;11.02;;;8.20;99.90;;;;;;5037984;28;20034;-85
2021/11/18 07:13:39;;;;;;;34.72;11.95;;;8.20;99.90;;;;;;5016416;28;20108;-84
2021/11/18 07:16:08;;;;;;;45.85;12.55;;;8.20;99.90;;;;;;5015820;28;20017;-84
2021/11/18 07:18:34;;;;;;;42.78;12.35;;;8.20;99.90;;;;;;5033881;28;20115;-84
2021/11/18 07:21:02;;;;;;;39.47;11.30;;;8.20;99.90;;;;;;5000078;28;20520;-84
2021/11/18 07:23:28;;;;;;;40.15;12.30;;;8.20;99.90;;;;;;5033746;28;20057;-84
2021/11/18 07:25:59;;;;;;;36.90;11.68;;;8.20;99.90;;;;;;5033924;28;20021;-84
2021/11/18 07:28:27;;;;;;;35.60;12.80;;;8.20;99.90;;;;;;5033677;28;20048;-84
2021/11/18 07:30:54;;;;;;;29.95;12.30;;;8.20;99.90;;;;;;5016042;28;20024;-85
2021/11/18 07:33:21;;;;;;;34.72;11.98;;;8.20;99.90;;;;;;5016371;28;20022;-85
2021/11/18 07:35:47;;;;;;;39.83;12.18;;;8.20;99.90;;;;;;5017931;28;20462;-85
2021/11/18 07:38:16;;;;;;;34.45;11.13;;;8.30;99.90;;;;;;5035841;28;20029;-85
2021/11/18 07:40:43;;;;;;;32.95;11.45;;;8.20;99.90;;;;;;5053149;28;20090;-85
2021/11/18 07:43:12;;;;;;;36.42;13.30;;;8.30;99.90;;;;;;5035200;28;20028;-84
2021/11/18 07:45:38;;;;;;;35.67;12.70;;;8.20;99.90;;;;;;5035138;28;20065;-90
2021/11/18 07:48:04;;;;;;;34.95;11.65;;;8.20;99.90;;;;;;5019358;28;20029;-84
2021/11/18 07:50:30;;;;;;;34.42;11.80;;;8.20;99.90;;;;;;5053303;28;20035;-84
2021/11/18 07:52:57;;;;;;;41.97;12.70;;;8.30;99.90;;;;;;5019289;28;20116;-84
2021/11/18 07:55:23;;;;;;;36.25;11.35;;;8.20;99.90;;;;;;5035573;28;20043;-85
2021/11/18 07:57:50;;;;;;;42.33;13.35;;;8.30;99.90;;;;;;5052955;28;20056;-85
2021/11/18 08:00:20;;;;;;;38.22;13.50;;;8.30;99.90;;;;;;5053184;28;20029;-84
2021/11/18 08:02:46;;;;;;;35.88;12.13;;;8.30;99.90;;;;;;5035561;28;20116;-84
2021/11/18 08:05:14;;;;;;;39.33;13.90;;;8.30;99.90;;;;;;5019381;28;20029;-84
2021/11/18 08:07:40;;;;;;;32.95;12.32;;;8.30;99.90;;;;;;5035644;28;20392;-84
2021/11/18 08:10:08;;;;;;;37.05;11.82;;;8.30;99.90;;;;;;5034670;28;20025;-84
2021/11/18 08:12:35;;;;;;;44.67;14.60;;;8.30;99.90;;;;;;5035912;28;20049;-84
2021/11/18 08:15:08;;;;;;;47.45;13.32;;;8.20;99.90;;;;;;5053442;28;20486;-84
2021/11/18 08:17:34;;;;;;;37.03;12.50;;;8.20;99.90;;;;;;5035093;28;20044;-83
2021/11/18 08:20:00;;;;;;;40.72;13.23;;;8.20;99.90;;;;;;5052274;28;20025;-84
2021/11/18 08:22:27;;;;;;;34.60;12.80;;;8.30;99.90;;;;;;5018536;28;20087;-84
2021/11/18 08:24:53;;;;;;;36.10;12.60;;;8.20;99.90;;;;;;5037789;28;20017;-84
2021/11/18 08:27:19;;;;;;;50.00;14.80;;;8.20;99.90;;;;;;5022704;28;20036;-84
2021/11/18 08:29:44;;;;;;;47.95;13.23;;;8.30;99.90;;;;;;5056422;28;20040;-85
2021/11/18 08:32:10;;;;;;;39.28;13.50;;;8.30;99.90;;;;;;5022466;28;20350;-84
2021/11/18 08:34:36;;;;;;;40.08;13.80;;;8.30;99.90;;;;;;5039134;28;20477;-84
2021/11/18 08:37:03;;;;;;;41.28;14.00;;;8.30;99.90;;;;;;5056275;28;20477;-84
2021/11/18 08:39:30;;;;;;;47.53;14.20;;;8.30;99.90;;;;;;5038817;28;20090;-84
2021/11/18 08:41:59;;;;;;;38.35;14.35;;;8.30;99.90;;;;;;5056516;28;20044;-83
2021/11/18 08:44:27;;;;;;;44.50;14.57;;;8.30;99.90;;;;;;5038210;28;20032;-84
2021/11/18 08:46:54;;;;;;;45.83;14.57;;;8.40;99.90;;;;;;5056161;28;20037;-84
2021/11/18 08:49:22;;;;;;;41.25;14.63;;;8.40;99.90;;;;;;5038854;28;20029;-83
2021/11/18 08:51:49;;;;;;;38.45;13.50;;;8.40;99.90;;;;;;5038427;28;20122;-84
2021/11/18 08:54:19;;;;;;;42.55;13.40;;;8.50;99.90;;;;;;5055901;28;20078;-83
2021/11/18 08:56:50;;;;;;;42.95;13.05;;;8.50;99.90;;;;;;5038735;28;20045;-84
2021/11/18 08:59:16;;;;;;;42.22;13.93;;;8.60;99.90;;;;;;5056084;28;20032;-83
2021/11/18 09:01:45;;;;;;;42.80;15.45;;;8.60;99.90;;;;;;5021945;28;20135;-84
2021/11/18 09:04:18;;;;;;;43.40;15.43;;;8.60;99.90;;;;;;5055760;28;20025;-84
2021/11/18 09:06:45;;;;;;;40.63;12.75;;;8.70;99.90;;;;;;5056159;28;20032;-84
2021/11/18 09:09:13;;;;;;;39.42;14.20;;;8.70;99.90;;;;;;5021600;28;20434;-84
2021/11/18 09:11:40;;;;;;;45.92;14.82;;;8.70;99.90;;;;;;5055634;28;20029;-84
2021/11/18 09:14:06;;;;;;;38.33;12.75;;;8.80;99.90;;;;;;5021828;28;20017;-83
2021/11/18 09:16:35;;;;;;;37.08;14.15;;;8.90;99.90;;;;;;5056368;28;20112;-83
2021/11/18 09:19:02;;;;;;;40.30;14.25;;;8.90;99.90;;;;;;5055583;28;20025;-84
2021/11/18 09:21:28;;;;;;;53.28;14.38;;;8.90;99.90;;;;;;5055596;28;20029;-83
2021/11/18 09:24:01;;;;;;;36.17;12.27;;;9.00;99.90;;;;;;5021563;28;20062;-84
2021/11/18 09:26:30;;;;;;;42.05;14.60;;;9.10;99.90;;;;;;5056516;28;20029;-84
2021/11/18 09:28:59;;;;;;;43.00;13.48;;;9.10;99.90;;;;;;5055787;28;20040;-84
2021/11/18 09:31:26;;;;;;;39.13;14.60;;;9.20;99.90;;;;;;5055247;28;20355;-84
2021/11/18 09:33:53;;;;;;;37.30;13.15;;;9.20;99.90;;;;;;5021483;28;20040;-84
2021/11/18 09:36:21;;;;;;;34.58;12.40;;;9.30;99.90;;;;;;5037413;28;20057;-83
2021/11/18 09:38:49;;;;;;;45.28;13.20;;;9.30;99.90;;;;;;5037709;28;20039;-84
2021/11/18 09:41:26;;;;;;;42.22;12.52;;;9.40;99.90;;;;;;5037401;28;20021;-84
2021/11/18 09:44:01;;;;;;;43.70;13.98;;;9.40;99.90;;;;;;5055678;28;20083;-85
2021/11/18 09:47:05;;;;;;;43.17;12.82;;;9.50;99.90;;;;;;5037135;28;20071;-83
2021/11/18 09:49:54;;;;;;;39.30;12.63;;;9.60;99.90;;;;;;5037799;28;20029;-83
2021/11/18 09:52:33;;;;;;;39.60;12.95;;;9.60;99.90;;;;;;5037581;28;20108;-83
2021/11/18 09:55:15;;;;;;;33.50;11.88;;;9.70;99.90;;;;;;5037504;28;20029;-83
2021/11/18 09:58:21;;;;;;;35.88;12.23;;;9.70;99.90;;;;;;5037596;28;20083;-83
2021/11/18 10:01:00;;;;;;;39.47;12.25;;;9.80;99.90;;;;;;5037225;28;20044;-83
2021/11/18 10:03:37;;;;;;;34.15;11.55;;;9.90;99.90;;;;;;5037125;28;20021;-84
2021/11/18 10:06:27;;;;;;;36.17;11.90;;;9.90;99.90;;;;;;5037157;28;20166;-83
2021/11/18 10:09:13;;;;;;;36.40;11.85;;;10.00;99.90;;;;;;5037147;28;20051;-93
2021/11/18 10:11:47;;;;;;;28.92;10.93;;;10.00;99.90;;;;;;5037242;28;20078;-83
2021/11/18 10:14:39;;;;;;;35.78;11.43;;;10.10;99.90;;;;;;5036823;28;20033;-83
2021/11/18 10:17:14;;;;;;;30.80;10.57;;;10.20;99.90;;;;;;5036571;28;20492;-83
2021/11/18 10:19:49;;;;;;;40.58;11.65;;;10.20;99.90;;;;;;5037229;28;20592;-84
2021/11/18 10:22:17;;;;;;;28.23;9.73;;;10.30;99.90;;;;;;5037434;28;20082;-83
2021/11/18 10:24:45;;;;;;;35.85;11.23;;;10.30;99.90;;;;;;5037892;28;20124;-83
2021/11/18 10:27:22;;;;;;;35.42;10.75;;;10.40;99.90;;;;;;5037194;28;20096;-83
2021/11/18 10:30:05;;;;;;;28.05;9.70;;;10.50;99.90;;;;;;5037370;28;20418;-83
2021/11/18 10:32:43;;;;;;;35.25;10.63;;;10.50;99.90;;;;;;5055318;28;20122;-82
2021/11/18 10:35:14;;;;;;;31.33;10.48;;;10.60;99.90;;;;;;5037266;28;20021;-83
2021/11/18 10:37:48;;;;;;;25.70;10.25;;;10.60;99.90;;;;;;5038129;28;20138;-83
2021/11/18 10:40:24;;;;;;;36.95;10.27;;;10.70;99.90;;;;;;5058425;28;20025;-83
2021/11/18 10:43:02;;;;;;;25.73;9.48;;;10.80;99.90;;;;;;5041332;28;20025;-83
2021/11/18 10:45:28;;;;;;;30.52;9.93;;;10.90;99.90;;;;;;5060134;28;20055;-84
2021/11/18 10:48:05;;;;;;;36.72;11.20;;;10.90;99.90;;;;;;5040101;28;20025;-83
2021/11/18 10:50:38;;;;;;;34.47;9.85;;;11.00;99.90;;;;;;5059888;28;20076;-85
2021/11/18 10:53:15;;;;;;;25.35;8.93;;;11.10;99.90;;;;;;5078400;28;20013;-85
2021/11/18 10:55:47;;;;;;;28.52;8.32;;;11.10;99.90;;;;;;5079105;28;20075;-84
2021/11/18 10:58:26;;;;;;;24.48;9.00;;;11.20;99.90;;;;;;5078697;28;20040;-88
2021/11/18 11:01:01;;;;;;;31.67;9.23;;;11.20;99.90;;;;;;5069034;28;20029;-83
2021/11/18 11:03:33;;;;;;;25.35;8.80;;;11.30;99.90;;;;;;5036229;28;20104;-83
2021/11/18 11:06:21;;;;;;;33.65;9.73;;;11.40;99.90;;;;;;5054492;28;20457;-90
2021/11/18 11:08:53;;;;;;;35.35;9.55;;;11.40;99.90;;;;;;5053864;28;20033;-83
2021/11/18 11:11:24;;;;;;;;;;;11.50;99.90;;;;;;5055354;28;20021;-83
2021/11/18 11:14:24;;;;;;;25.42;9.52;;;11.60;99.90;;;;;;5035556;28;19905;-83
2021/11/18 11:17:11;;;;;;;29.70;8.38;;;11.60;99.90;;;;;;5036129;28;20025;-83
2021/11/18 11:19:58;;;;;;;28.83;9.40;;;11.70;99.90;;;;;;5036013;28;20029;-86
2021/11/18 11:22:40;;;;;;;27.52;8.55;;;11.70;99.90;;;;;;5053020;28;20017;-84
2021/11/18 11:25:05;;;;;;;22.27;8.52;;;11.80;99.90;;;;;;5054377;28;20053;-84
2021/11/18 11:28:00;;;;;;;22.25;8.65;;;11.90;99.90;;;;;;5053813;28;20040;-83
2021/11/18 11:30:36;;;;;;;27.80;7.70;;;12.00;99.70;;;;;;5036191;28;20355;-83
2021/11/18 11:33:15;;;;;;;25.02;7.00;;;12.10;99.60;;;;;;5035636;28;20021;-88
2021/11/18 11:35:44;;;;;;;31.52;8.70;;;12.10;99.20;;;;;;5035648;28;20457;-83
2021/11/18 11:38:35;;;;;;;28.38;7.38;;;12.10;98.60;;;;;;5035474;28;20098;-83
2021/11/18 11:41:06;;;;;;;29.67;8.98;;;12.10;99.00;;;;;;5035422;28;20108;-83
2021/11/18 11:43:40;;;;;;;23.95;7.55;;;12.10;99.30;;;;;;5035717;28;20461;-83
2021/11/18 11:46:38;;;;;;;24.50;7.00;;;12.20;99.10;;;;;;5035504;28;20470;-83
2021/11/18 11:49:06;;;;;;;27.10;7.30;;;12.20;98.70;;;;;;5052359;28;20036;-86
2021/11/18 11:51:55;;;;;;;22.50;6.22;;;12.30;98.60;;;;;;5035793;28;20456;-83
2021/11/18 11:54:46;;;;;;;19.67;5.78;;;12.30;97.90;;;;;;5034909;28;20029;-84
2021/11/18 11:57:21;;;;;;;;;;;12.40;98.30;;;;;;5036247;28;20159;-83
2021/11/18 12:00:10;;;;;;;24.42;5.53;;;12.50;98.60;;;;;;5057004;28;20003;-84
2021/11/18 12:02:47;;;;;;;23.70;5.97;;;12.50;98.10;;;;;;5039660;28;20389;-83
2021/11/18 12:05:27;;;;;;;19.17;6.13;;;12.60;97.90;;;;;;5039666;28;20029;-84
2021/11/18 12:08:04;;;;;;;22.30;6.18;;;12.70;98.10;;;;;;5058425;28;20017;-81
2021/11/18 12:10:55;;;;;;;20.90;5.25;;;12.80;97.30;;;;;;5039246;28;20070;-83
2021/11/18 12:13:39;;;;;;;23.52;5.60;;;12.80;96.90;;;;;;5039176;28;20064;-83
2021/11/18 12:16:39;;;;;;;17.60;5.28;;;12.90;96.70;;;;;;5039417;28;20029;-83
2021/11/18 12:19:19;;;;;;;18.70;5.57;;;13.00;96.70;;;;;;5057149;28;20029;-83
2021/11/18 12:21:44;;;;;;;26.63;5.07;;;13.10;96.70;;;;;;5057046;28;20025;-83
2021/11/18 12:24:25;;;;;;;21.48;5.85;;;13.10;96.80;;;;;;5055699;28;20021;-84
2021/11/18 12:27:22;;;;;;;20.98;4.93;;;13.20;96.00;;;;;;5038512;28;20024;-83
2021/11/18 12:29:51;;;;;;;23.50;5.35;;;13.20;95.20;;;;;;5026546;28;20033;-83
2021/11/18 12:32:16;;;;;;;21.10;5.00;;;13.20;95.00;;;;;;5056850;28;20519;-84
2021/11/18 12:34:57;;;;;;;18.50;5.35;;;13.20;95.40;;;;;;5038986;28;20029;-83
2021/11/18 12:37:46;;;;;;;18.50;4.97;;;13.20;95.00;;;;;;5056742;28;20060;-83
2021/11/18 12:40:27;;;;;;;18.63;5.53;;;13.30;94.80;;;;;;5038793;28;20122;-84
2021/11/18 12:43:10;;;;;;;20.42;6.10;;;13.30;94.70;;;;;;5038725;28;20119;-83
2021/11/18 12:45:44;;;;;;;24.23;5.95;;;13.30;94.50;;;;;;5056961;28;20036;-83
2021/11/18 12:48:26;;;;;;;22.75;5.72;;;13.30;94.40;;;;;;5038739;28;20024;-84
2021/11/18 12:51:14;;;;;;;27.83;6.07;;;13.40;94.90;;;;;;5056633;28;20021;-84
2021/11/18 12:53:51;;;;;;;20.67;6.65;;;13.40;94.70;;;;;;5038857;28;20043;-83
2021/11/18 12:56:51;;;;;;;19.45;5.22;;;13.50;94.30;;;;;;5038560;28;20028;-83